createdAt,value
2022-11-16T00:00:19.075Z,5.75
2022-11-16T00:01:29.068Z,5.83
2022-11-16T00:02:31.471Z,5.89
2022-11-16T00:03:37.122Z,5.85
2022-11-16T00:04:39.507Z,5.89
2022-11-16T00:05:41.698Z,5.89
2022-11-16T00:06:43.922Z,5.88
2022-11-16T00:07:46.345Z,5.77
2022-11-16T00:09:09.964Z,5.74
2022-11-16T00:10:12.651Z,5.65
2022-11-16T00:11:17.996Z,5.71
2022-11-16T00:12:20.175Z,5.89
2022-11-16T00:13:22.507Z,5.70
2022-11-16T00:14:27.474Z,5.81
2022-11-16T00:15:29.839Z,6.05
2022-11-16T00:16:32.843Z,6.12
2022-11-16T00:17:36.130Z,6.17
2022-11-16T00:18:38.309Z,5.98
2022-11-16T00:19:42.809Z,5.98
2022-11-16T00:20:45.646Z,5.96
2022-11-16T00:21:48.042Z,6.00
2022-11-16T00:22:50.190Z,6.08
2022-11-16T00:23:52.780Z,6.03
2022-11-16T00:24:54.907Z,6.12
2022-11-16T00:26:02.871Z,6.09
2022-11-16T00:27:05.243Z,6.03
2022-11-16T00:28:07.941Z,6.07
2022-11-16T00:29:21.884Z,5.99
2022-11-16T00:30:24.099Z,5.94
2022-11-16T00:31:30.011Z,5.96
2022-11-16T00:32:33.495Z,5.88
2022-11-16T00:33:39.084Z,5.80
2022-11-16T00:34:41.773Z,5.89
2022-11-16T00:35:43.925Z,5.73
2022-11-16T00:36:46.926Z,5.79
2022-11-16T00:37:51.189Z,5.74
2022-11-16T00:38:56.333Z,5.80
2022-11-16T00:39:58.524Z,5.64
2022-11-16T00:41:00.871Z,5.75
2022-11-16T00:42:05.797Z,5.84
2022-11-16T00:43:08.004Z,5.76
2022-11-16T00:44:12.997Z,5.89
2022-11-16T00:45:15.261Z,5.97
2022-11-16T00:46:17.449Z,6.05
2022-11-16T00:47:22.406Z,5.94
2022-11-16T00:48:24.792Z,6.05
2022-11-16T00:49:27.285Z,6.07
2022-11-16T00:50:29.670Z,6.03
2022-11-16T00:51:32.409Z,5.92
2022-11-16T00:52:37.306Z,5.87
2022-11-16T00:53:39.952Z,5.71
2022-11-16T00:54:42.895Z,5.66
2022-11-16T00:55:46.535Z,5.46
2022-11-16T00:56:50.557Z,5.22
2022-11-16T00:57:55.842Z,5.26
2022-11-16T00:59:00.000Z,5.44
2022-11-16T01:00:06.831Z,5.46
2022-11-16T01:01:11.648Z,5.26
2022-11-16T01:02:14.039Z,5.35
2022-11-16T01:03:19.505Z,5.57
2022-11-16T01:04:22.097Z,5.58
2022-11-16T01:05:24.614Z,5.25
2022-11-16T01:06:26.797Z,5.34
2022-11-16T01:07:31.278Z,5.46
2022-11-16T01:08:35.361Z,5.61
2022-11-16T01:09:37.946Z,5.32
2022-11-16T01:10:41.424Z,5.43
2022-11-16T01:12:04.614Z,5.31
2022-11-16T01:13:07.443Z,5.39
2022-11-16T01:14:11.044Z,5.29
2022-11-16T01:15:13.644Z,5.29
2022-11-16T01:16:17.919Z,5.00
2022-11-16T01:17:20.069Z,4.63
2022-11-16T01:18:22.603Z,4.68
2022-11-16T01:19:24.790Z,4.48
2022-11-16T01:20:29.448Z,4.45
2022-11-16T01:21:34.734Z,4.54
2022-11-16T01:22:38.351Z,4.60
2022-11-16T01:23:40.677Z,4.50
2022-11-16T01:24:42.882Z,4.46
2022-11-16T01:25:45.230Z,4.66
2022-11-16T01:26:47.512Z,4.69
2022-11-16T01:27:49.914Z,4.77
2022-11-16T01:29:00.119Z,4.86
2022-11-16T01:30:09.599Z,5.01
2022-11-16T01:31:14.997Z,5.17
2022-11-16T01:32:17.645Z,5.24
2022-11-16T01:33:23.028Z,4.98
2022-11-16T01:34:26.094Z,5.07
2022-11-16T01:35:33.494Z,5.11
2022-11-16T01:36:36.775Z,4.99
2022-11-16T01:37:40.274Z,4.86
2022-11-16T01:38:44.026Z,4.75
2022-11-16T01:39:49.451Z,4.73
2022-11-16T01:40:52.057Z,4.93
2022-11-16T01:41:57.248Z,4.78
2022-11-16T01:42:59.552Z,4.71
2022-11-16T01:44:02.823Z,4.65
2022-11-16T01:45:27.825Z,4.65
2022-11-16T01:46:32.990Z,4.63
2022-11-16T01:47:36.120Z,4.62
2022-11-16T01:48:38.794Z,4.61
2022-11-16T01:49:46.111Z,4.62
2022-11-16T01:50:50.100Z,4.79
2022-11-16T01:52:02.008Z,4.82
2022-11-16T01:53:10.762Z,4.81
2022-11-16T01:54:22.043Z,4.88
2022-11-16T01:55:33.624Z,5.05
2022-11-16T01:57:03.286Z,5.16
2022-11-16T01:58:28.661Z,4.94
2022-11-16T01:59:41.085Z,4.91
2022-11-16T02:00:52.263Z,5.11
2022-11-16T02:02:17.544Z,5.19
2022-11-16T02:03:21.508Z,5.26
2022-11-16T02:04:27.146Z,5.31
2022-11-16T02:05:42.051Z,5.47
2022-11-16T02:07:14.947Z,5.47
2022-11-16T02:09:03.802Z,5.35
2022-11-16T02:10:46.979Z,5.44
2022-11-16T02:12:04.131Z,5.31
2022-11-16T02:13:29.087Z,5.22
2022-11-16T02:14:51.465Z,5.31
2022-11-16T02:16:06.108Z,5.47
2022-11-16T02:17:48.572Z,5.26
2022-11-16T02:19:06.167Z,5.23
2022-11-16T02:20:34.804Z,5.31
2022-11-16T02:21:45.183Z,5.52
2022-11-16T02:23:15.090Z,5.62
2022-11-16T02:24:20.035Z,5.67
2022-11-16T02:25:25.408Z,5.70
2022-11-16T02:27:04.937Z,5.74
2022-11-16T02:28:29.127Z,5.78
2022-11-16T02:29:33.817Z,5.84
2022-11-16T02:30:38.388Z,5.96
2022-11-16T02:32:05.284Z,5.86
2022-11-16T02:33:13.395Z,5.75
2022-11-16T02:34:21.216Z,5.50
2022-11-16T02:35:39.962Z,5.59
2022-11-16T02:36:47.390Z,5.45
2022-11-16T02:37:58.303Z,5.46
2022-11-16T02:39:07.575Z,5.63
2022-11-16T02:40:12.996Z,5.59
2022-11-16T02:41:20.383Z,5.44
2022-11-16T02:42:34.188Z,5.45
2022-11-16T02:43:43.552Z,5.45
2022-11-16T02:44:49.907Z,5.58
2022-11-16T02:45:55.799Z,5.46
2022-11-16T02:47:03.687Z,5.49
2022-11-16T02:48:14.148Z,5.36
2022-11-16T02:49:19.280Z,5.51
2022-11-16T02:50:23.852Z,5.46
2022-11-16T02:51:30.599Z,5.39
2022-11-16T02:52:36.993Z,5.33
2022-11-16T02:53:59.044Z,5.33
2022-11-16T02:55:01.756Z,5.35
2022-11-16T02:56:05.301Z,5.45
2022-11-16T02:57:07.439Z,5.33
2022-11-16T02:58:12.498Z,5.41
2022-11-16T02:59:17.672Z,5.56
2022-11-16T03:00:30.619Z,5.76
2022-11-16T03:01:38.434Z,5.73
2022-11-16T03:02:56.829Z,5.72
2022-11-16T03:04:08.654Z,5.79
2022-11-16T03:05:35.480Z,5.91
2022-11-16T03:06:43.831Z,5.93
2022-11-16T03:07:52.283Z,5.79
2022-11-16T03:09:21.133Z,5.59
2022-11-16T03:10:49.755Z,5.66
2022-11-16T03:12:02.448Z,5.71
2022-11-16T03:13:12.785Z,5.94
2022-11-16T03:14:20.477Z,6.00
2022-11-16T03:15:23.450Z,5.86
2022-11-16T03:16:37.430Z,5.89
2022-11-16T03:17:44.501Z,6.00
2022-11-16T03:18:50.137Z,5.91
2022-11-16T03:20:06.802Z,5.79
2022-11-16T03:21:21.795Z,5.71
2022-11-16T03:22:31.169Z,5.89
2022-11-16T03:23:33.985Z,6.02
2022-11-16T03:24:36.733Z,6.10
2022-11-16T03:25:47.226Z,5.85
2022-11-16T03:26:58.003Z,5.66
2022-11-16T03:28:23.851Z,5.49
2022-11-16T03:29:55.551Z,5.61
2022-11-16T03:31:04.249Z,5.84
2022-11-16T03:32:20.289Z,5.93
2022-11-16T03:33:28.181Z,5.75
2022-11-16T03:34:35.770Z,5.76
2022-11-16T03:36:03.571Z,5.60
2022-11-16T03:37:09.115Z,5.71
2022-11-16T03:38:15.598Z,5.89
2022-11-16T03:39:29.617Z,5.72
2022-11-16T03:40:34.339Z,5.64
2022-11-16T03:41:41.451Z,5.47
2022-11-16T03:42:46.009Z,5.48
2022-11-16T03:43:49.363Z,5.69
2022-11-16T03:44:52.434Z,5.84
2022-11-16T03:45:55.296Z,5.84
2022-11-16T03:46:57.710Z,5.85
2022-11-16T03:48:00.623Z,5.86
2022-11-16T03:49:03.092Z,6.08
2022-11-16T03:50:11.250Z,6.02
2022-11-16T03:51:15.071Z,6.19
2022-11-16T03:52:19.025Z,6.15
2022-11-16T03:53:23.249Z,6.12
2022-11-16T03:54:26.370Z,6.00
2022-11-16T03:55:28.620Z,6.00
2022-11-16T03:56:30.916Z,5.89
2022-11-16T03:57:33.129Z,5.92
2022-11-16T03:58:35.860Z,5.94
2022-11-16T03:59:38.454Z,6.04
2022-11-16T04:00:40.685Z,6.20
2022-11-16T04:01:46.320Z,6.15
2022-11-16T04:02:49.955Z,5.98
2022-11-16T04:03:55.654Z,6.05
2022-11-16T04:05:17.928Z,5.94
2022-11-16T04:06:38.671Z,5.72
2022-11-16T04:07:59.324Z,5.77
2022-11-16T04:09:10.645Z,5.93
2022-11-16T04:10:33.346Z,6.02
2022-11-16T04:11:54.685Z,6.15
2022-11-16T04:13:17.662Z,6.17
2022-11-16T04:14:41.362Z,6.11
2022-11-16T04:16:05.741Z,6.16
2022-11-16T04:17:37.983Z,6.09
2022-11-16T04:18:59.073Z,6.06
2022-11-16T04:20:19.866Z,5.86
2022-11-16T04:21:43.202Z,5.83
2022-11-16T04:23:19.314Z,5.82
2022-11-16T04:24:25.471Z,6.08
2022-11-16T04:25:31.993Z,6.11
2022-11-16T04:26:58.122Z,6.16
2022-11-16T04:28:16.526Z,6.35
2022-11-16T04:29:27.714Z,6.27
2022-11-16T04:30:50.247Z,6.27
2022-11-16T04:32:12.209Z,6.33
2022-11-16T04:33:33.225Z,6.30
2022-11-16T04:34:55.596Z,6.38
2022-11-16T04:36:20.549Z,6.37
2022-11-16T04:37:41.907Z,6.26
2022-11-16T04:38:44.277Z,6.02
2022-11-16T04:39:46.457Z,5.96
2022-11-16T04:40:48.701Z,5.99
2022-11-16T04:42:09.741Z,5.98
2022-11-16T04:43:12.321Z,6.05
2022-11-16T04:44:18.346Z,6.22
2022-11-16T04:45:42.457Z,6.16
2022-11-16T04:47:04.597Z,6.23
2022-11-16T04:48:08.852Z,6.13
2022-11-16T04:49:12.381Z,5.94
2022-11-16T04:50:14.700Z,5.88
2022-11-16T04:51:17.875Z,5.77
2022-11-16T04:52:20.268Z,5.90
2022-11-16T04:53:27.200Z,6.15
2022-11-16T04:54:43.040Z,6.01
2022-11-16T04:55:45.516Z,6.14
2022-11-16T04:56:49.411Z,6.15
2022-11-16T04:57:51.712Z,6.23
2022-11-16T04:58:55.487Z,6.05
2022-11-16T04:59:57.817Z,6.24
2022-11-16T05:01:00.430Z,6.30
2022-11-16T05:02:10.163Z,6.36
2022-11-16T05:03:26.351Z,6.44
2022-11-16T05:04:28.958Z,6.37
2022-11-16T05:05:31.181Z,6.52
2022-11-16T05:06:35.149Z,6.40
2022-11-16T05:07:37.572Z,6.17
2022-11-16T05:08:46.552Z,6.10
2022-11-16T05:09:51.039Z,6.20
2022-11-16T05:10:54.338Z,6.12
2022-11-16T05:11:56.547Z,5.91
2022-11-16T05:12:58.954Z,5.96
2022-11-16T05:14:02.930Z,6.08
2022-11-16T05:15:07.053Z,6.29
2022-11-16T05:16:09.378Z,6.45
2022-11-16T05:17:12.144Z,6.32
2022-11-16T05:18:14.624Z,6.21
2022-11-16T05:19:35.660Z,6.37
2022-11-16T05:20:56.627Z,6.32
2022-11-16T05:21:59.381Z,6.37
2022-11-16T05:23:01.656Z,6.50
2022-11-16T05:24:27.105Z,6.49
2022-11-16T05:25:34.024Z,6.34
2022-11-16T05:26:40.335Z,6.13
2022-11-16T05:27:42.918Z,6.11
2022-11-16T05:28:45.143Z,6.13
2022-11-16T05:29:49.762Z,6.01
2022-11-16T05:30:54.439Z,5.88
2022-11-16T05:32:00.037Z,5.90
2022-11-16T05:33:02.632Z,5.84
2022-11-16T05:34:10.063Z,5.96
2022-11-16T05:35:12.899Z,5.95
2022-11-16T05:36:15.142Z,5.88
2022-11-16T05:37:19.117Z,5.90
2022-11-16T05:38:21.726Z,5.83
2022-11-16T05:39:28.333Z,5.93
2022-11-16T05:40:33.077Z,5.87
2022-11-16T05:41:36.293Z,5.85
2022-11-16T05:42:38.920Z,5.92
2022-11-16T05:43:41.210Z,5.94
2022-11-16T05:44:49.521Z,6.21
2022-11-16T05:45:52.563Z,6.26
2022-11-16T05:46:56.099Z,6.29
2022-11-16T05:47:58.810Z,6.23
2022-11-16T05:49:01.784Z,6.26
2022-11-16T05:50:04.427Z,6.33
2022-11-16T05:51:12.370Z,6.27
2022-11-16T05:52:14.646Z,6.12
2022-11-16T05:53:19.430Z,6.26
2022-11-16T05:54:27.389Z,6.41
2022-11-16T05:55:31.174Z,6.45
2022-11-16T05:56:35.206Z,6.44
2022-11-16T05:57:38.011Z,6.31
2022-11-16T05:58:40.956Z,6.24
2022-11-16T05:59:43.909Z,6.13
2022-11-16T06:00:47.000Z,5.91
2022-11-16T06:01:50.783Z,5.97
2022-11-16T06:02:53.138Z,5.90
2022-11-16T06:04:03.162Z,5.89
2022-11-16T06:05:07.897Z,5.88
2022-11-16T06:06:10.824Z,5.83
2022-11-16T06:07:13.438Z,5.78
2022-11-16T06:08:16.199Z,5.70
2022-11-16T06:09:18.820Z,5.78
2022-11-16T06:10:21.999Z,5.84
2022-11-16T06:11:28.290Z,6.05
2022-11-16T06:12:34.150Z,6.20
2022-11-16T06:13:36.866Z,6.35
2022-11-16T06:14:39.129Z,6.19
2022-11-16T06:15:41.577Z,6.18
2022-11-16T06:16:45.069Z,6.28
2022-11-16T06:17:47.294Z,6.34
2022-11-16T06:18:50.760Z,6.31
2022-11-16T06:19:54.959Z,6.09
2022-11-16T06:20:57.430Z,6.17
2022-11-16T06:21:59.798Z,6.13
2022-11-16T06:23:04.256Z,6.21
2022-11-16T06:24:09.227Z,6.14
2022-11-16T06:25:12.102Z,6.14
2022-11-16T06:26:17.739Z,6.19
2022-11-16T06:27:21.170Z,6.45
2022-11-16T06:28:23.872Z,6.46
2022-11-16T06:29:26.467Z,6.28
2022-11-16T06:30:29.172Z,6.22
2022-11-16T06:31:31.395Z,6.08
2022-11-16T06:32:36.298Z,6.17
2022-11-16T06:33:39.903Z,6.15
2022-11-16T06:34:49.031Z,6.09
2022-11-16T06:35:51.547Z,6.01
2022-11-16T06:36:57.384Z,6.16
2022-11-16T06:37:59.860Z,6.13
2022-11-16T06:39:02.480Z,6.21
2022-11-16T06:40:11.333Z,6.36
2022-11-16T06:41:17.336Z,6.30
2022-11-16T06:42:23.794Z,6.25
2022-11-16T06:43:27.763Z,6.22
2022-11-16T06:44:30.800Z,6.26
2022-11-16T06:45:36.822Z,6.15
2022-11-16T06:46:40.313Z,6.23
2022-11-16T06:47:42.933Z,6.11
2022-11-16T06:48:45.464Z,6.13
2022-11-16T06:49:49.457Z,6.28
2022-11-16T06:50:56.398Z,6.32
2022-11-16T06:51:58.827Z,6.20
2022-11-16T06:53:01.930Z,6.37
2022-11-16T06:54:06.241Z,6.46
2022-11-16T06:55:09.043Z,6.69
2022-11-16T06:56:15.016Z,6.88
2022-11-16T06:57:26.599Z,6.64
2022-11-16T06:58:31.602Z,6.42
2022-11-16T06:59:34.349Z,6.36
2022-11-16T07:00:36.836Z,6.54
2022-11-16T07:01:39.107Z,6.68
2022-11-16T07:02:47.172Z,6.58
2022-11-16T07:03:52.742Z,6.68
2022-11-16T07:04:59.249Z,6.76
2022-11-16T07:06:11.593Z,6.47
2022-11-16T07:07:16.379Z,6.38
2022-11-16T07:08:19.048Z,6.26
2022-11-16T07:09:21.546Z,6.26
2022-11-16T07:10:24.634Z,6.21
2022-11-16T07:11:28.151Z,6.12
2022-11-16T07:12:30.336Z,6.09
2022-11-16T07:13:35.234Z,6.27
2022-11-16T07:14:38.304Z,6.35
2022-11-16T07:15:43.303Z,6.16
2022-11-16T07:16:45.548Z,6.06
2022-11-16T07:17:47.900Z,6.16
2022-11-16T07:18:50.265Z,6.12
2022-11-16T07:19:52.601Z,6.08
2022-11-16T07:20:55.049Z,6.12
2022-11-16T07:21:57.857Z,6.07
2022-11-16T07:23:01.558Z,6.05
2022-11-16T07:24:04.794Z,6.21
2022-11-16T07:25:08.359Z,6.43
2022-11-16T07:26:11.449Z,6.57
2022-11-16T07:27:34.115Z,6.72
2022-11-16T07:28:36.605Z,6.67
2022-11-16T07:29:39.533Z,6.52
2022-11-16T07:31:10.784Z,6.53
2022-11-16T07:32:13.488Z,6.56
2022-11-16T07:33:39.118Z,6.71
2022-11-16T07:35:13.394Z,6.66
2022-11-16T07:36:16.846Z,6.49
2022-11-16T07:37:19.198Z,6.45
2022-11-16T07:38:21.466Z,6.33
2022-11-16T07:39:23.930Z,6.24
2022-11-16T07:40:26.356Z,6.22
2022-11-16T07:41:28.971Z,6.34
2022-11-16T07:42:45.880Z,6.56
2022-11-16T07:44:01.662Z,6.62
2022-11-16T07:45:08.142Z,6.38
2022-11-16T07:47:44.743Z,6.33
2022-11-16T07:48:57.179Z,6.29
2022-11-16T07:50:26.103Z,6.28
2022-11-16T07:51:28.615Z,6.44
2022-11-16T07:52:51.445Z,6.33
2022-11-16T07:53:57.314Z,6.45
2022-11-16T07:54:59.598Z,6.46
2022-11-16T07:56:04.055Z,6.50
2022-11-16T07:57:08.255Z,6.61
2022-11-16T07:58:10.605Z,6.74
2022-11-16T07:59:14.053Z,6.85
2022-11-16T08:00:21.120Z,6.95
2022-11-16T08:01:33.400Z,6.99
2022-11-16T08:02:35.919Z,6.92
2022-11-16T08:03:39.733Z,7.01
2022-11-16T08:04:42.762Z,7.08
2022-11-16T08:05:45.444Z,7.07
2022-11-16T08:06:50.082Z,7.07
2022-11-16T08:07:53.699Z,7.20
2022-11-16T08:08:59.635Z,7.14
2022-11-16T08:10:02.896Z,7.18
2022-11-16T08:11:08.166Z,7.20
2022-11-16T08:12:10.618Z,7.31
2022-11-16T08:13:13.128Z,7.25
2022-11-16T08:14:19.188Z,6.94
2022-11-16T08:15:24.856Z,6.77
2022-11-16T08:16:27.527Z,6.63
2022-11-16T08:17:38.879Z,6.44
2022-11-16T08:18:44.243Z,6.62
2022-11-16T08:19:46.897Z,6.74
2022-11-16T08:20:51.187Z,6.69
2022-11-16T08:21:53.599Z,6.74
2022-11-16T08:23:01.032Z,6.67
2022-11-16T08:24:06.363Z,6.71
2022-11-16T08:25:12.135Z,6.75
2022-11-16T08:26:19.641Z,6.94
2022-11-16T08:27:28.581Z,7.02
2022-11-16T08:28:33.477Z,7.00
2022-11-16T08:29:35.890Z,7.01
2022-11-16T08:30:40.775Z,6.91
2022-11-16T08:31:44.952Z,6.77
2022-11-16T08:32:49.668Z,6.62
2022-11-16T08:33:52.671Z,6.39
2022-11-16T08:34:56.133Z,6.45
2022-11-16T08:36:02.606Z,6.56
2022-11-16T08:37:04.886Z,6.61
2022-11-16T08:38:15.059Z,6.66
2022-11-16T08:39:17.427Z,6.50
2022-11-16T08:40:19.613Z,6.38
2022-11-16T08:41:23.212Z,6.42
2022-11-16T08:42:25.748Z,6.36
2022-11-16T08:43:31.175Z,6.51
2022-11-16T08:44:33.364Z,6.55
2022-11-16T08:45:40.305Z,6.66
2022-11-16T08:46:42.645Z,6.61
2022-11-16T08:48:03.447Z,6.63
2022-11-16T08:49:08.540Z,6.85
2022-11-16T08:50:10.794Z,7.01
2022-11-16T08:51:18.567Z,7.12
2022-11-16T08:52:26.258Z,6.93
2022-11-16T08:53:30.281Z,6.90
2022-11-16T08:54:32.742Z,6.85
2022-11-16T08:55:35.206Z,6.73
2022-11-16T08:56:37.841Z,6.75
2022-11-16T08:57:40.946Z,6.94
2022-11-16T08:58:55.261Z,6.85
2022-11-16T09:00:00.430Z,6.94
2022-11-16T09:01:14.909Z,7.03
2022-11-16T09:02:25.224Z,6.97
2022-11-16T09:03:27.674Z,6.75
2022-11-16T09:04:35.698Z,6.86
2022-11-16T09:05:39.167Z,6.72
2022-11-16T09:06:41.371Z,6.69
2022-11-16T09:07:45.750Z,6.49
2022-11-16T09:08:47.934Z,6.32
2022-11-16T09:09:50.378Z,6.36
2022-11-16T09:10:52.600Z,6.26
2022-11-16T09:11:55.366Z,6.46
2022-11-16T09:12:57.786Z,6.30
2022-11-16T09:14:00.047Z,6.37
2022-11-16T09:15:02.818Z,6.23
2022-11-16T09:16:05.568Z,6.16
2022-11-16T09:17:07.713Z,6.25
2022-11-16T09:18:10.096Z,6.35
2022-11-16T09:19:12.261Z,6.41
2022-11-16T09:20:14.900Z,6.54
2022-11-16T09:21:24.917Z,6.47
2022-11-16T09:22:27.128Z,6.43
2022-11-16T09:23:29.691Z,6.46
2022-11-16T09:24:32.149Z,6.31
2022-11-16T09:25:34.383Z,6.48
2022-11-16T09:26:36.547Z,6.67
2022-11-16T09:27:38.688Z,6.68
2022-11-16T09:28:41.098Z,6.78
2022-11-16T09:29:43.663Z,6.65
2022-11-16T09:30:48.594Z,6.81
2022-11-16T09:31:50.799Z,6.90
2022-11-16T09:32:53.103Z,6.89
2022-11-16T09:33:58.484Z,6.72
2022-11-16T09:35:00.925Z,6.69
2022-11-16T09:36:08.227Z,6.79
2022-11-16T09:37:10.602Z,6.79
2022-11-16T09:38:17.656Z,6.79
2022-11-16T09:39:31.103Z,6.94
2022-11-16T09:40:37.918Z,6.89
2022-11-16T09:42:08.309Z,6.77
2022-11-16T09:43:50.992Z,6.88
2022-11-16T09:45:08.740Z,6.89
2022-11-16T09:46:13.611Z,6.58
2022-11-16T09:47:22.283Z,6.49
2022-11-16T09:48:25.445Z,6.36
2022-11-16T09:49:40.950Z,6.42
2022-11-16T09:50:56.791Z,6.33
2022-11-16T09:52:12.926Z,6.38
2022-11-16T09:53:18.424Z,6.20
2022-11-16T09:54:27.215Z,6.38
2022-11-16T09:55:43.512Z,6.50
2022-11-16T09:56:49.083Z,6.32
2022-11-16T09:57:55.662Z,6.29
2022-11-16T09:59:12.237Z,6.22
2022-11-16T10:00:22.780Z,6.26
2022-11-16T10:01:40.101Z,6.17
2022-11-16T10:02:47.812Z,6.13
2022-11-16T10:03:55.750Z,6.13
2022-11-16T10:05:04.759Z,6.17
2022-11-16T10:06:16.247Z,6.34
2022-11-16T10:07:27.835Z,6.41
2022-11-16T10:08:33.060Z,6.24
2022-11-16T10:09:36.232Z,6.25
2022-11-16T10:11:11.773Z,6.18
2022-11-16T10:12:22.890Z,6.28
2022-11-16T10:13:37.338Z,6.32
2022-11-16T10:14:48.713Z,6.29
2022-11-16T10:16:13.690Z,6.43
2022-11-16T10:17:24.883Z,6.47
2022-11-16T10:18:50.128Z,6.24
2022-11-16T10:20:19.725Z,6.21
2022-11-16T10:21:40.466Z,6.08
2022-11-16T10:23:18.495Z,6.39
2022-11-16T10:24:53.624Z,6.29
2022-11-16T10:26:32.197Z,6.44
2022-11-16T10:28:02.736Z,6.57
2022-11-16T10:29:23.205Z,6.66
2022-11-16T10:30:25.406Z,6.69
2022-11-16T10:31:54.947Z,6.50
2022-11-16T10:33:10.854Z,6.34
2022-11-16T10:34:29.827Z,6.52
2022-11-16T10:35:44.301Z,6.50
2022-11-16T10:36:46.455Z,6.45
2022-11-16T10:37:50.711Z,6.42
2022-11-16T10:38:55.480Z,6.37
2022-11-16T10:39:58.085Z,6.30
2022-11-16T10:41:14.201Z,6.25
2022-11-16T10:42:41.768Z,6.27
2022-11-16T10:43:45.566Z,6.44
2022-11-16T10:44:55.189Z,6.44
2022-11-16T10:46:09.304Z,6.37
2022-11-16T10:47:38.743Z,6.36
2022-11-16T10:49:03.652Z,6.38
2022-11-16T10:50:32.391Z,6.32
2022-11-16T10:51:34.749Z,6.53
2022-11-16T10:52:37.007Z,6.66
2022-11-16T10:53:41.776Z,6.65
2022-11-16T10:54:44.545Z,6.60
2022-11-16T10:56:02.481Z,6.71
2022-11-16T10:57:13.890Z,6.42
2022-11-16T10:58:16.168Z,6.34
2022-11-16T10:59:19.833Z,6.34
2022-11-16T11:00:48.193Z,6.48
2022-11-16T11:01:53.320Z,6.60
2022-11-16T11:02:55.528Z,6.57
2022-11-16T11:03:57.903Z,6.73
2022-11-16T11:05:23.155Z,6.66
2022-11-16T11:06:26.559Z,6.78
2022-11-16T11:07:33.639Z,6.96
2022-11-16T11:08:36.020Z,6.96
2022-11-16T11:09:41.718Z,6.96
2022-11-16T11:10:58.702Z,7.04
2022-11-16T11:12:22.445Z,7.01
2022-11-16T11:13:27.685Z,6.55
2022-11-16T11:14:32.526Z,6.48
2022-11-16T11:15:35.195Z,6.60
2022-11-16T11:16:38.076Z,6.86
2022-11-16T11:17:42.863Z,6.73
2022-11-16T11:18:45.616Z,6.66
2022-11-16T11:19:57.238Z,6.75
2022-11-16T11:21:08.070Z,6.90
2022-11-16T11:22:13.340Z,7.04
2022-11-16T11:23:25.109Z,6.88
2022-11-16T11:24:43.252Z,6.92
2022-11-16T11:25:53.248Z,6.92
2022-11-16T11:26:59.261Z,7.22
2022-11-16T11:28:22.875Z,7.12
2022-11-16T11:29:31.972Z,7.07
2022-11-16T11:30:35.309Z,6.62
2022-11-16T11:31:47.201Z,6.45
2022-11-16T11:32:50.410Z,6.40
2022-11-16T11:34:00.729Z,6.48
2022-11-16T11:35:03.597Z,6.45
2022-11-16T11:36:18.795Z,6.40
2022-11-16T11:37:34.795Z,6.55
2022-11-16T11:39:00.153Z,6.55
2022-11-16T11:40:23.584Z,6.66
2022-11-16T11:41:32.461Z,6.73
2022-11-16T11:42:34.728Z,6.62
2022-11-16T11:43:37.611Z,6.64
2022-11-16T11:44:54.464Z,6.53
2022-11-16T11:46:02.949Z,6.38
2022-11-16T11:48:41.522Z,6.44
2022-11-16T11:49:50.136Z,6.48
2022-11-16T11:51:02.803Z,6.57
2022-11-16T11:52:26.477Z,6.78
2022-11-16T11:53:47.455Z,6.76
2022-11-16T11:54:50.169Z,6.89
2022-11-16T11:55:57.125Z,6.87
2022-11-16T11:57:03.122Z,6.75
2022-11-16T11:58:06.728Z,6.60
2022-11-16T11:59:15.481Z,6.71
2022-11-16T12:00:18.378Z,6.64
2022-11-16T12:01:51.617Z,6.72
2022-11-16T12:03:12.069Z,6.61
2022-11-16T12:04:44.543Z,6.64
2022-11-16T12:06:28.152Z,6.57
2022-11-16T12:07:46.547Z,6.58
2022-11-16T12:09:00.839Z,6.67
2022-11-16T12:10:12.139Z,6.58
2022-11-16T12:11:34.458Z,6.55
2022-11-16T12:13:13.905Z,6.64
2022-11-16T12:14:16.329Z,6.48
2022-11-16T12:15:45.447Z,6.45
2022-11-16T12:16:53.699Z,6.72
2022-11-16T12:18:04.765Z,6.53
2022-11-16T12:19:33.499Z,6.34
2022-11-16T12:21:01.099Z,6.49
2022-11-16T12:22:09.018Z,6.47
2022-11-16T12:23:30.564Z,6.40
2022-11-16T12:24:35.622Z,6.37
2022-11-16T12:25:40.717Z,6.53
2022-11-16T12:26:46.151Z,6.65
2022-11-16T12:28:08.908Z,6.81
2022-11-16T12:29:37.180Z,6.69
2022-11-16T12:31:01.634Z,6.80
2022-11-16T12:32:27.638Z,6.61
2022-11-16T12:33:33.090Z,6.83
2022-11-16T12:34:41.277Z,6.85
2022-11-16T12:36:12.167Z,6.93
2022-11-16T12:37:14.490Z,6.97
2022-11-16T12:38:34.692Z,6.88
2022-11-16T12:40:09.981Z,6.75
2022-11-16T12:41:31.557Z,6.54
2022-11-16T12:42:56.121Z,6.54
2022-11-16T12:44:05.165Z,6.39
2022-11-16T12:45:37.942Z,6.16
2022-11-16T12:47:04.262Z,6.19
2022-11-16T12:48:31.147Z,6.33
2022-11-16T12:50:01.106Z,6.41
2022-11-16T12:51:09.388Z,6.58
2022-11-16T12:52:34.136Z,6.61
2022-11-16T12:53:58.242Z,6.63
2022-11-16T12:55:26.937Z,6.59
2022-11-16T12:56:48.895Z,6.46
2022-11-16T12:58:26.716Z,6.19
2022-11-16T12:59:47.211Z,6.22
2022-11-16T13:01:02.857Z,6.32
2022-11-16T13:02:30.032Z,6.20
2022-11-16T13:03:32.615Z,6.24
2022-11-16T13:04:47.272Z,6.45
2022-11-16T13:06:39.989Z,6.54
2022-11-16T13:08:12.709Z,6.28
2022-11-16T13:09:36.058Z,6.02
2022-11-16T13:10:43.075Z,6.01
2022-11-16T13:11:54.778Z,6.00
2022-11-16T13:13:36.442Z,6.17
2022-11-16T13:14:48.169Z,6.05
2022-11-16T13:15:52.662Z,6.00
2022-11-16T13:16:57.165Z,6.14
2022-11-16T13:18:01.716Z,6.31
2022-11-16T13:19:06.889Z,6.47
2022-11-16T13:20:45.904Z,6.46
2022-11-16T13:21:55.928Z,6.37
2022-11-16T13:23:18.286Z,6.30
2022-11-16T13:24:26.341Z,6.12
2022-11-16T13:26:00.607Z,5.93
2022-11-16T13:27:23.835Z,6.16
2022-11-16T13:28:36.413Z,6.37
2022-11-16T13:29:50.797Z,6.50
2022-11-16T13:31:19.094Z,6.34
2022-11-16T13:32:34.823Z,6.24
2022-11-16T13:33:51.323Z,6.16
2022-11-16T13:34:54.079Z,5.95
2022-11-16T13:35:56.262Z,5.99
2022-11-16T13:36:58.659Z,6.24
2022-11-16T13:38:01.001Z,6.37
2022-11-16T13:39:04.935Z,6.48
2022-11-16T13:40:07.078Z,6.30
2022-11-16T13:41:36.399Z,6.30
2022-11-16T13:43:00.726Z,6.33
2022-11-16T13:44:10.925Z,6.31
2022-11-16T13:45:21.817Z,6.29
2022-11-16T13:46:57.096Z,6.30
2022-11-16T13:47:58.882Z,6.30
2022-11-16T13:49:01.284Z,6.27
2022-11-16T13:50:06.878Z,6.12
2022-11-16T13:51:18.838Z,6.10
2022-11-16T13:52:24.143Z,6.29
2022-11-16T13:55:15.743Z,6.40
2022-11-16T13:56:25.565Z,6.54
2022-11-16T13:57:34.938Z,6.40
2022-11-16T13:58:44.154Z,6.41
2022-11-16T13:59:48.434Z,6.55
2022-11-16T14:01:16.873Z,6.31
2022-11-16T14:02:36.205Z,6.32
2022-11-16T14:03:40.412Z,6.18
2022-11-16T14:04:56.202Z,6.32
2022-11-16T14:05:58.505Z,6.28
2022-11-16T14:07:01.132Z,6.38
2022-11-16T14:08:37.112Z,6.13
2022-11-16T14:09:49.335Z,6.13
2022-11-16T14:10:51.639Z,6.01
2022-11-16T14:11:53.831Z,6.06
2022-11-16T14:12:57.089Z,6.15
2022-11-16T14:14:01.528Z,6.08
2022-11-16T14:15:15.225Z,6.30
2022-11-16T14:16:20.088Z,6.38
2022-11-16T14:17:50.185Z,6.10
2022-11-16T14:18:53.816Z,6.23
2022-11-16T14:19:56.236Z,6.17
2022-11-16T14:21:43.499Z,5.98
2022-11-16T14:23:17.825Z,6.21
2022-11-16T14:24:29.591Z,6.12
2022-11-16T14:25:40.787Z,6.05
2022-11-16T14:27:01.820Z,6.21
2022-11-16T14:28:06.572Z,6.12
2022-11-16T14:29:39.210Z,6.30
2022-11-16T14:31:10.048Z,6.18
2022-11-16T14:32:28.987Z,6.26
2022-11-16T14:33:34.917Z,6.17
2022-11-16T14:34:43.489Z,6.31
2022-11-16T14:35:52.591Z,6.27
2022-11-16T14:36:55.296Z,6.31
2022-11-16T14:38:00.846Z,6.11
2022-11-16T14:39:25.884Z,6.09
2022-11-16T14:40:28.652Z,6.01
2022-11-16T14:41:30.932Z,5.91
2022-11-16T14:42:54.725Z,6.02
2022-11-16T14:44:00.879Z,6.02
2022-11-16T14:45:16.074Z,6.10
2022-11-16T14:46:35.533Z,6.06
2022-11-16T14:47:39.101Z,5.98
2022-11-16T14:48:46.397Z,6.15
2022-11-16T14:49:48.966Z,6.19
2022-11-16T14:51:11.350Z,6.07
2022-11-16T14:52:16.365Z,6.28
2022-11-16T14:53:20.372Z,6.21
2022-11-16T14:54:45.563Z,6.37
2022-11-16T14:55:47.721Z,6.25
2022-11-16T14:57:00.459Z,6.36
2022-11-16T14:58:22.230Z,6.22
2022-11-16T14:59:24.993Z,6.17
2022-11-16T15:00:30.190Z,6.16
2022-11-16T15:01:42.321Z,6.44
2022-11-16T15:02:53.628Z,6.45
2022-11-16T15:04:04.686Z,6.53
2022-11-16T15:05:07.301Z,6.58
2022-11-16T15:06:09.549Z,6.42
2022-11-16T15:07:14.493Z,6.60
2022-11-16T15:08:23.716Z,6.81
2022-11-16T15:09:34.121Z,6.59
2022-11-16T15:10:36.340Z,6.41
2022-11-16T15:12:00.686Z,6.24
2022-11-16T15:13:06.610Z,6.25
2022-11-16T15:14:09.093Z,6.47
2022-11-16T15:15:11.316Z,6.35
2022-11-16T15:16:19.984Z,6.10
2022-11-16T15:17:30.139Z,5.99
2022-11-16T15:18:35.338Z,6.05
2022-11-16T15:19:37.539Z,6.07
2022-11-16T15:20:50.755Z,6.31
2022-11-16T15:21:55.301Z,6.29
2022-11-16T15:23:01.489Z,6.42
2022-11-16T15:25:34.751Z,6.33
2022-11-16T15:26:38.503Z,6.33
2022-11-16T15:27:41.859Z,6.19
2022-11-16T15:28:49.760Z,6.30
2022-11-16T15:29:52.319Z,6.41
2022-11-16T15:31:04.557Z,6.41
2022-11-16T15:32:13.036Z,6.34